createdAt,value
2022-11-30T00:00:08.313Z,94.72
2022-11-30T00:02:14.316Z,94.25
2022-11-30T00:04:16.250Z,94.30
2022-11-30T00:06:23.245Z,94.31
2022-11-30T00:08:29.402Z,94.46
2022-11-30T00:10:31.529Z,94.56
2022-11-30T00:12:34.391Z,94.13
2022-11-30T00:14:36.714Z,94.35
2022-11-30T00:16:38.743Z,94.48
2022-11-30T00:18:41.095Z,94.67
2022-11-30T00:20:43.306Z,94.91
2022-11-30T00:22:45.526Z,95.01
2022-11-30T00:24:47.863Z,94.75
2022-11-30T00:26:50.261Z,94.80
2022-11-30T00:28:52.682Z,94.60
2022-11-30T00:31:00.895Z,94.67
2022-11-30T00:33:03.150Z,94.80
2022-11-30T00:35:05.474Z,94.75
2022-11-30T00:37:07.673Z,94.66
2022-11-30T00:39:09.899Z,94.75
2022-11-30T00:41:12.841Z,94.72
2022-11-30T00:43:15.142Z,94.96
2022-11-30T00:45:17.368Z,94.93
2022-11-30T00:47:19.431Z,94.45
2022-11-30T00:49:21.643Z,94.57
2022-11-30T00:51:23.594Z,94.47
2022-11-30T00:53:25.739Z,94.75
2022-11-30T00:55:29.993Z,94.46
2022-11-30T00:57:33.038Z,94.66
2022-11-30T00:59:35.349Z,95.22
2022-11-30T01:01:37.297Z,94.93
2022-11-30T01:03:39.515Z,95.21
2022-11-30T01:05:43.353Z,95.40
2022-11-30T01:07:45.627Z,95.25
2022-11-30T01:09:47.603Z,95.14
2022-11-30T01:11:49.957Z,95.62
2022-11-30T01:13:52.547Z,95.39
2022-11-30T01:15:54.679Z,95.47
2022-11-30T01:17:58.832Z,95.72
2022-11-30T01:20:01.342Z,95.55
2022-11-30T01:22:03.558Z,95.03
2022-11-30T01:24:06.153Z,95.19
2022-11-30T01:26:09.290Z,95.08
2022-11-30T01:28:11.506Z,94.67
2022-11-30T01:30:13.542Z,94.64
2022-11-30T01:32:15.620Z,94.63
2022-11-30T01:34:17.838Z,95.05
2022-11-30T01:36:26.611Z,94.67
2022-11-30T01:38:35.329Z,94.94
2022-11-30T01:40:37.498Z,95.31
2022-11-30T01:42:46.421Z,94.90
2022-11-30T01:44:52.255Z,95.21
2022-11-30T01:46:59.938Z,94.66
2022-11-30T01:49:16.196Z,95.01
2022-11-30T01:51:18.255Z,94.80
2022-11-30T01:53:20.417Z,95.05
2022-11-30T01:55:37.978Z,94.68
2022-11-30T01:57:45.022Z,94.79
2022-11-30T01:59:50.891Z,95.14
2022-11-30T02:01:55.040Z,94.98
2022-11-30T02:04:03.903Z,94.94
2022-11-30T02:06:06.439Z,94.74
2022-11-30T02:08:12.114Z,95.14
2022-11-30T02:10:22.583Z,94.71
2022-11-30T02:12:34.267Z,95.09
2022-11-30T02:14:46.503Z,95.23
2022-11-30T02:17:02.303Z,94.85
2022-11-30T02:19:30.721Z,95.10
2022-11-30T02:21:44.063Z,95.54
2022-11-30T02:23:58.330Z,95.55
2022-11-30T02:26:27.814Z,95.12
2022-11-30T02:28:32.423Z,95.75
2022-11-30T02:30:40.957Z,95.30
2022-11-30T02:32:49.199Z,95.26
2022-11-30T02:34:52.925Z,95.21
2022-11-30T02:36:56.395Z,95.38
2022-11-30T02:38:58.775Z,95.34
2022-11-30T02:41:00.904Z,95.64
2022-11-30T02:43:04.537Z,95.29
2022-11-30T02:45:08.250Z,95.71
2022-11-30T02:47:18.849Z,95.25
2022-11-30T02:49:30.907Z,95.29
2022-11-30T02:51:36.410Z,95.41
2022-11-30T02:53:38.904Z,95.71
2022-11-30T02:55:41.311Z,95.29
2022-11-30T02:57:43.384Z,95.37
2022-11-30T02:59:45.759Z,95.03
2022-11-30T03:01:51.809Z,95.29
2022-11-30T03:03:53.959Z,96.14
2022-11-30T03:05:55.985Z,96.26
2022-11-30T03:07:58.215Z,96.36
2022-11-30T03:10:00.357Z,96.09
2022-11-30T03:12:02.536Z,96.11
2022-11-30T03:14:04.544Z,96.06
2022-11-30T03:16:10.476Z,95.57
2022-11-30T03:18:14.342Z,95.65
2022-11-30T03:20:16.647Z,95.20
2022-11-30T03:22:18.784Z,95.26
2022-11-30T03:24:20.946Z,95.36
2022-11-30T03:26:22.939Z,95.18
2022-11-30T03:28:25.531Z,95.67
2022-11-30T03:30:27.931Z,95.50
2022-11-30T03:32:31.216Z,95.30
2022-11-30T03:34:33.836Z,95.34
2022-11-30T03:36:36.405Z,94.83
2022-11-30T03:38:38.756Z,95.04
2022-11-30T03:40:41.048Z,95.35
2022-11-30T03:42:43.268Z,94.79
2022-11-30T03:44:45.565Z,95.35
2022-11-30T03:46:47.993Z,95.01
2022-11-30T03:48:50.069Z,95.33
2022-11-30T03:50:52.273Z,94.82
2022-11-30T03:52:54.954Z,94.86
2022-11-30T03:54:56.872Z,94.88
2022-11-30T03:56:58.926Z,95.12
2022-11-30T03:59:01.069Z,94.80
2022-11-30T04:01:06.663Z,95.42
2022-11-30T04:03:08.824Z,95.25
2022-11-30T04:05:11.416Z,95.30
2022-11-30T04:07:13.564Z,95.19
2022-11-30T04:09:15.628Z,95.37
2022-11-30T04:11:17.657Z,95.60
2022-11-30T04:13:21.663Z,95.26
2022-11-30T04:15:24.396Z,95.52
2022-11-30T04:17:26.354Z,95.81
2022-11-30T04:19:28.465Z,95.78
2022-11-30T04:21:30.973Z,95.93
2022-11-30T04:23:36.343Z,96.55
2022-11-30T04:25:39.663Z,96.79
2022-11-30T04:27:41.835Z,96.54
2022-11-30T04:29:43.840Z,96.36
2022-11-30T04:31:46.098Z,96.67
2022-11-30T04:33:48.148Z,96.33
2022-11-30T04:35:54.794Z,96.58
2022-11-30T04:37:56.880Z,96.80
2022-11-30T04:39:58.959Z,96.30
2022-11-30T04:42:01.029Z,96.85
2022-11-30T04:44:03.061Z,97.14
2022-11-30T04:46:06.335Z,97.45
2022-11-30T04:48:08.726Z,97.09
2022-11-30T04:50:11.052Z,97.25
2022-11-30T04:52:13.632Z,97.39
2022-11-30T04:54:15.803Z,97.34
2022-11-30T04:56:17.810Z,98.12
2022-11-30T04:58:19.972Z,97.71
2022-11-30T05:00:23.065Z,97.84
2022-11-30T05:02:25.157Z,98.45
2022-11-30T05:04:27.289Z,97.89
2022-11-30T05:06:29.432Z,97.98
2022-11-30T05:08:31.477Z,98.12
2022-11-30T05:10:34.107Z,98.29
2022-11-30T05:12:36.635Z,98.34
2022-11-30T05:14:38.776Z,97.96
2022-11-30T05:16:40.964Z,97.37
2022-11-30T05:18:43.058Z,97.45
2022-11-30T05:20:49.225Z,97.86
2022-11-30T05:22:51.286Z,97.51
2022-11-30T05:24:53.415Z,97.02
2022-11-30T05:26:55.479Z,97.22
2022-11-30T05:28:57.536Z,97.22
2022-11-30T05:31:06.405Z,97.13
2022-11-30T05:33:09.229Z,96.45
2022-11-30T05:35:11.657Z,96.51
2022-11-30T05:37:13.730Z,96.41
2022-11-30T05:39:15.829Z,96.44
2022-11-30T05:41:20.581Z,96.02
2022-11-30T05:43:23.155Z,96.39
2022-11-30T05:45:27.759Z,96.10
2022-11-30T05:47:30.009Z,96.19
2022-11-30T05:49:32.194Z,96.09
2022-11-30T05:51:34.219Z,95.80
2022-11-30T05:53:36.812Z,95.51
2022-11-30T05:55:39.014Z,94.81
2022-11-30T06:00:24.573Z,95.01
2022-11-30T06:02:28.437Z,94.87
2022-11-30T06:04:31.062Z,94.71
2022-11-30T06:06:33.667Z,94.96
2022-11-30T06:08:35.938Z,94.92
2022-11-30T06:10:37.969Z,94.98
2022-11-30T06:12:40.186Z,94.52
2022-11-30T06:14:42.811Z,94.83
2022-11-30T06:16:45.098Z,94.67
2022-11-30T06:18:47.409Z,94.48
2022-11-30T06:20:49.547Z,93.90
2022-11-30T06:22:52.138Z,94.24
2022-11-30T06:24:54.344Z,94.14
2022-11-30T06:26:56.420Z,93.82
2022-11-30T06:28:58.486Z,93.75
2022-11-30T06:31:01.170Z,93.25
2022-11-30T06:33:03.820Z,92.83
2022-11-30T06:35:06.346Z,93.06
2022-11-30T06:37:08.801Z,92.79
2022-11-30T06:39:12.913Z,93.17
2022-11-30T06:41:15.086Z,92.90
2022-11-30T06:43:17.238Z,92.62
2022-11-30T06:45:19.289Z,92.63
2022-11-30T06:47:21.501Z,92.50
2022-11-30T06:49:23.561Z,92.07
2022-11-30T06:51:25.878Z,92.37
2022-11-30T06:53:28.038Z,92.47
2022-11-30T06:56:29.303Z,91.85
2022-11-30T06:58:31.499Z,92.00
2022-11-30T07:00:34.200Z,92.36
2022-11-30T07:02:36.825Z,91.52
2022-11-30T07:04:39.693Z,91.14
2022-11-30T07:06:41.754Z,91.83
2022-11-30T07:08:44.441Z,91.90
2022-11-30T07:10:47.639Z,91.45
2022-11-30T07:12:50.492Z,91.40
2022-11-30T07:14:55.689Z,91.40
2022-11-30T07:16:58.575Z,91.37
2022-11-30T07:19:00.718Z,91.16
2022-11-30T07:21:04.899Z,91.09
2022-11-30T07:23:26.294Z,91.55
2022-11-30T07:25:47.228Z,91.29
2022-11-30T07:27:49.761Z,91.35
2022-11-30T07:29:52.653Z,91.36
2022-11-30T07:31:54.988Z,91.03
2022-11-30T07:33:57.726Z,90.83
2022-11-30T07:35:59.996Z,90.82
2022-11-30T07:38:06.725Z,91.03
2022-11-30T07:40:12.052Z,90.53
2022-11-30T07:42:17.180Z,90.53
2022-11-30T07:44:19.318Z,89.62
2022-11-30T07:46:21.551Z,89.25
2022-11-30T07:48:23.570Z,89.58
2022-11-30T07:50:25.938Z,89.62
2022-11-30T07:52:29.949Z,89.12
2022-11-30T07:54:32.073Z,88.86
2022-11-30T07:56:34.282Z,88.71
2022-11-30T07:58:36.344Z,89.07
2022-11-30T08:00:41.912Z,88.93
2022-11-30T08:02:44.012Z,88.78
2022-11-30T08:04:46.824Z,88.44
2022-11-30T08:06:49.147Z,88.54
2022-11-30T08:08:54.108Z,88.62
2022-11-30T08:11:00.079Z,88.76
2022-11-30T08:13:02.196Z,88.33
2022-11-30T08:15:19.933Z,87.97
2022-11-30T08:17:22.967Z,88.41
2022-11-30T08:19:25.112Z,88.80
2022-11-30T08:21:27.207Z,88.50
2022-11-30T08:23:33.182Z,88.73
2022-11-30T08:25:35.828Z,88.92
2022-11-30T08:27:37.980Z,88.69
2022-11-30T08:29:40.006Z,88.59
2022-11-30T08:31:42.071Z,88.63
2022-11-30T08:33:44.744Z,89.01
2022-11-30T08:35:46.964Z,89.17
2022-11-30T08:37:49.088Z,89.49
2022-11-30T08:39:51.128Z,89.54
2022-11-30T08:41:53.866Z,89.97
2022-11-30T08:43:55.928Z,90.48
2022-11-30T08:45:58.070Z,90.71
2022-11-30T08:48:00.110Z,90.63
2022-11-30T08:50:02.689Z,90.85
2022-11-30T08:52:20.103Z,90.60
2022-11-30T08:54:22.353Z,90.34
2022-11-30T08:56:24.926Z,90.36
2022-11-30T08:58:32.583Z,90.27
2022-11-30T09:00:34.759Z,89.91
2022-11-30T09:02:37.697Z,90.08
2022-11-30T09:04:39.878Z,90.00
2022-11-30T09:06:42.140Z,90.06
2022-11-30T09:08:45.835Z,90.18
2022-11-30T09:10:47.821Z,89.91
2022-11-30T09:12:49.944Z,89.92
2022-11-30T09:14:57.661Z,89.72
2022-11-30T09:17:00.474Z,89.64
2022-11-30T09:19:02.582Z,89.23
2022-11-30T09:21:09.055Z,89.18
2022-11-30T09:23:20.092Z,88.99
2022-11-30T09:25:23.300Z,88.70
2022-11-30T09:27:31.403Z,88.71
2022-11-30T09:29:33.567Z,88.84
2022-11-30T09:31:35.935Z,88.80
2022-11-30T09:33:38.532Z,88.57
2022-11-30T09:35:40.780Z,89.08
2022-11-30T09:37:43.160Z,89.18
2022-11-30T09:39:45.191Z,89.48
2022-11-30T09:41:56.579Z,89.30
2022-11-30T09:44:17.193Z,89.65
2022-11-30T09:46:30.847Z,89.40
2022-11-30T09:49:10.372Z,89.46
2022-11-30T09:51:19.059Z,88.76
2022-11-30T09:53:43.499Z,88.56
2022-11-30T09:55:46.022Z,88.03
2022-11-30T09:58:02.409Z,87.92
2022-11-30T10:00:15.187Z,87.38
2022-11-30T10:02:18.461Z,87.11
2022-11-30T10:04:25.943Z,87.07
2022-11-30T10:06:33.053Z,87.07
2022-11-30T10:09:09.626Z,86.96
2022-11-30T10:11:14.540Z,86.73
2022-11-30T10:13:44.613Z,85.69
2022-11-30T10:16:10.052Z,86.03
2022-11-30T10:18:23.599Z,86.04
2022-11-30T10:20:44.374Z,85.46
2022-11-30T10:22:56.218Z,84.76
2022-11-30T10:25:17.416Z,84.65
2022-11-30T10:27:34.382Z,84.31
2022-11-30T10:29:41.927Z,84.84
2022-11-30T10:31:45.033Z,84.54
2022-11-30T10:33:50.284Z,84.25
2022-11-30T10:36:00.481Z,84.36
2022-11-30T10:38:12.787Z,84.10
2022-11-30T10:40:49.851Z,84.30
2022-11-30T10:43:20.756Z,84.28
2022-11-30T10:45:24.616Z,84.47
2022-11-30T10:47:36.963Z,84.58
2022-11-30T10:49:45.612Z,84.56
2022-11-30T10:51:53.947Z,84.44
2022-11-30T10:53:58.145Z,84.81
2022-11-30T10:56:12.546Z,84.66
2022-11-30T10:58:32.032Z,84.63
2022-11-30T11:00:34.176Z,84.52
2022-11-30T11:02:42.243Z,84.38
2022-11-30T11:04:44.363Z,84.58
2022-11-30T11:06:53.788Z,84.29
2022-11-30T11:08:56.201Z,84.40
2022-11-30T11:10:58.227Z,84.60
2022-11-30T11:13:01.006Z,84.77
2022-11-30T11:15:18.455Z,84.49
2022-11-30T11:17:23.226Z,84.52
2022-11-30T11:19:33.967Z,85.15
2022-11-30T11:21:36.816Z,85.06
2022-11-30T11:23:41.958Z,84.64
2022-11-30T11:25:44.246Z,85.17
2022-11-30T11:27:53.383Z,85.45
2022-11-30T11:30:08.092Z,85.35
2022-11-30T11:32:25.106Z,85.58
2022-11-30T11:34:33.002Z,85.94
2022-11-30T11:36:37.110Z,85.84
2022-11-30T11:38:48.424Z,85.40
2022-11-30T11:41:03.143Z,85.58
2022-11-30T11:43:17.007Z,85.74
2022-11-30T11:45:39.413Z,85.94
2022-11-30T11:47:45.238Z,86.29
2022-11-30T11:49:49.777Z,86.74
2022-11-30T11:52:04.930Z,86.73
2022-11-30T11:54:26.177Z,86.88
2022-11-30T11:56:40.100Z,86.93
2022-11-30T11:59:04.102Z,87.06
2022-11-30T12:01:38.527Z,86.67
2022-11-30T12:03:48.401Z,86.41
2022-11-30T12:05:57.187Z,86.28
2022-11-30T12:08:14.862Z,86.66
2022-11-30T12:12:55.108Z,86.48
2022-11-30T12:14:58.735Z,86.49
2022-11-30T12:17:10.220Z,86.26
2022-11-30T12:19:19.633Z,86.99
2022-11-30T12:21:40.389Z,86.95
2022-11-30T12:24:04.896Z,87.40
2022-11-30T12:26:13.107Z,87.13
2022-11-30T12:28:24.286Z,87.69
2022-11-30T12:31:11.818Z,88.08
2022-11-30T12:33:29.770Z,88.59
2022-11-30T12:35:40.015Z,88.50
2022-11-30T12:37:48.101Z,88.72
2022-11-30T12:39:57.454Z,88.74
2022-11-30T12:42:07.139Z,88.54
2022-11-30T12:44:29.465Z,88.57
2022-11-30T12:46:43.847Z,88.92
2022-11-30T12:48:48.993Z,88.68
2022-11-30T12:50:51.564Z,88.87
2022-11-30T12:53:17.205Z,88.72
2022-11-30T12:55:37.013Z,88.80
2022-11-30T12:57:51.752Z,88.99
2022-11-30T13:00:16.227Z,89.30
2022-11-30T13:02:36.597Z,89.43
2022-11-30T13:04:42.709Z,90.25
2022-11-30T13:06:54.659Z,90.72
2022-11-30T13:09:26.253Z,91.10
2022-11-30T13:11:35.362Z,91.61
2022-11-30T13:13:42.221Z,92.52
2022-11-30T13:15:46.256Z,92.69
2022-11-30T13:17:52.577Z,93.20
2022-11-30T13:20:08.650Z,93.78
2022-11-30T13:22:19.518Z,94.11
2022-11-30T13:24:34.935Z,94.34
2022-11-30T13:26:48.971Z,94.83
2022-11-30T13:29:45.012Z,95.00
2022-11-30T13:32:22.239Z,95.25
2022-11-30T13:34:39.831Z,95.75
2022-11-30T13:36:45.598Z,95.94
2022-11-30T13:39:08.099Z,96.13
2022-11-30T13:41:10.420Z,96.54
2022-11-30T13:43:21.192Z,96.69
2022-11-30T13:45:27.860Z,96.76
2022-11-30T13:47:34.847Z,97.17
2022-11-30T13:49:37.314Z,97.26
2022-11-30T13:51:42.218Z,97.26
2022-11-30T13:53:48.028Z,97.59
2022-11-30T13:56:03.843Z,97.62
2022-11-30T13:58:08.688Z,97.50
2022-11-30T14:00:30.246Z,97.82
2022-11-30T14:05:19.870Z,98.10
2022-11-30T14:08:10.307Z,98.05
2022-11-30T14:13:14.437Z,98.53
2022-11-30T14:15:42.040Z,98.13
2022-11-30T14:17:51.453Z,98.78
2022-11-30T14:20:17.207Z,98.89
2022-11-30T14:22:39.398Z,98.55
2022-11-30T14:24:54.557Z,99.44
2022-11-30T14:27:04.038Z,99.40
2022-11-30T14:29:24.962Z,99.08
2022-11-30T14:31:33.769Z,99.15
2022-11-30T14:33:46.286Z,99.71
2022-11-30T14:35:55.503Z,99.42
2022-11-30T14:37:59.914Z,99.55
2022-11-30T14:40:14.311Z,99.81
2022-11-30T14:42:29.438Z,99.77
2022-11-30T14:44:36.757Z,100.00
2022-11-30T14:46:39.753Z,99.76
2022-11-30T14:48:44.138Z,100.00
2022-11-30T14:50:52.039Z,99.89
2022-11-30T14:53:13.178Z,100.00
2022-11-30T14:55:19.332Z,100.00
2022-11-30T14:57:39.022Z,100.00
2022-11-30T14:59:53.439Z,100.00
2022-11-30T15:02:07.163Z,100.00
2022-11-30T15:04:18.043Z,100.00
2022-11-30T15:06:23.656Z,99.98
2022-11-30T15:08:43.527Z,100.00
2022-11-30T15:10:46.916Z,100.00
2022-11-30T15:12:51.246Z,100.00
2022-11-30T15:15:14.312Z,100.00
2022-11-30T15:17:16.707Z,100.00
2022-11-30T15:19:24.950Z,100.00
2022-11-30T15:21:33.839Z,100.00
2022-11-30T15:23:36.201Z,100.00
2022-11-30T15:25:44.109Z,100.00
2022-11-30T15:27:46.712Z,100.00
2022-11-30T15:30:01.112Z,100.00
2022-11-30T15:32:15.909Z,100.00
2022-11-30T15:34:28.931Z,100.00
2022-11-30T15:37:11.817Z,100.00
2022-11-30T15:39:24.678Z,100.00
2022-11-30T15:41:30.070Z,100.00
2022-11-30T15:43:39.630Z,100.00
2022-11-30T15:45:53.665Z,100.00
2022-11-30T15:47:57.957Z,100.00
2022-11-30T15:50:00.346Z,100.00
2022-11-30T15:52:17.437Z,100.00
2022-11-30T15:54:46.689Z,100.00
2022-11-30T15:56:57.602Z,100.00
2022-11-30T15:59:20.873Z,100.00
2022-11-30T16:01:26.770Z,100.00
2022-11-30T16:03:29.317Z,100.00
2022-11-30T16:05:33.515Z,100.00
2022-11-30T16:07:48.192Z,100.00
2022-11-30T16:09:50.493Z,100.00
2022-11-30T16:11:57.488Z,100.00
2022-11-30T16:13:59.786Z,100.00
2022-11-30T16:16:02.144Z,100.00
2022-11-30T16:18:19.198Z,100.00
2022-11-30T16:20:28.914Z,100.00
2022-11-30T16:22:31.508Z,100.00
2022-11-30T16:24:33.653Z,100.00
2022-11-30T16:26:50.449Z,100.00
2022-11-30T16:28:55.625Z,100.00
2022-11-30T16:31:02.313Z,99.99
2022-11-30T16:33:04.961Z,99.98
2022-11-30T16:35:36.254Z,100.00
2022-11-30T16:37:39.727Z,99.70
2022-11-30T16:39:45.475Z,100.00
2022-11-30T16:41:48.406Z,100.00
2022-11-30T16:43:54.010Z,99.73
2022-11-30T16:45:58.410Z,99.93
2022-11-30T16:48:00.528Z,100.00
2022-11-30T16:50:02.978Z,100.00
2022-11-30T16:52:05.650Z,99.73
2022-11-30T16:54:14.112Z,99.80
2022-11-30T16:56:23.325Z,99.66
2022-11-30T16:58:25.751Z,99.97
2022-11-30T17:00:28.501Z,99.50
2022-11-30T17:02:30.665Z,99.74
2022-11-30T17:04:33.389Z,100.00
2022-11-30T17:06:35.436Z,100.00
2022-11-30T17:08:38.694Z,99.71
2022-11-30T17:10:42.552Z,100.00
2022-11-30T17:12:45.321Z,100.00
2022-11-30T17:14:47.982Z,100.00
2022-11-30T17:16:50.805Z,100.00
2022-11-30T17:18:53.235Z,100.00
2022-11-30T17:20:55.755Z,100.00
2022-11-30T17:23:01.310Z,100.00
2022-11-30T17:25:11.706Z,100.00
2022-11-30T17:27:15.571Z,100.00
2022-11-30T17:29:18.567Z,100.00
2022-11-30T17:31:21.915Z,99.92
2022-11-30T17:33:24.375Z,100.00
2022-11-30T17:35:26.577Z,99.81
2022-11-30T17:37:29.444Z,99.09
2022-11-30T17:39:34.477Z,99.18
2022-11-30T17:41:39.692Z,99.70
2022-11-30T17:43:42.311Z,99.52
2022-11-30T17:45:44.877Z,99.60
2022-11-30T17:47:47.457Z,99.72
2022-11-30T17:49:52.890Z,99.65
2022-11-30T17:51:55.791Z,99.56
2022-11-30T17:53:58.545Z,99.46
2022-11-30T17:56:05.720Z,99.48
2022-11-30T17:58:08.436Z,98.94
2022-11-30T18:00:15.201Z,99.33
2022-11-30T18:02:17.887Z,99.05
2022-11-30T18:04:26.095Z,99.35
2022-11-30T18:06:29.658Z,99.21
2022-11-30T18:08:34.897Z,99.03
2022-11-30T18:10:41.033Z,99.66
2022-11-30T18:12:43.678Z,99.49
2022-11-30T18:14:46.014Z,99.08
2022-11-30T18:16:48.524Z,99.55
2022-11-30T18:18:51.748Z,98.95
2022-11-30T18:20:54.763Z,99.45
2022-11-30T18:23:08.067Z,99.34
2022-11-30T18:25:10.558Z,98.89
2022-11-30T18:27:46.738Z,99.67
2022-11-30T18:29:48.890Z,99.38
2022-11-30T18:31:51.469Z,99.44
2022-11-30T18:34:05.415Z,100.00
2022-11-30T18:36:08.075Z,100.00
2022-11-30T18:38:10.258Z,99.65
2022-11-30T18:40:13.530Z,99.75
2022-11-30T18:42:16.493Z,99.98
2022-11-30T18:44:19.473Z,99.60
2022-11-30T18:46:22.464Z,99.77
2022-11-30T18:48:25.421Z,99.73
2022-11-30T18:50:29.447Z,99.57
2022-11-30T18:52:31.621Z,100.00
2022-11-30T18:54:37.061Z,99.72
2022-11-30T18:56:39.548Z,99.70
2022-11-30T18:58:46.691Z,99.55
2022-11-30T19:00:48.975Z,99.86
2022-11-30T19:02:51.211Z,99.48
2022-11-30T19:04:53.383Z,99.51
2022-11-30T19:06:55.626Z,99.23
2022-11-30T19:08:57.971Z,99.63
2022-11-30T19:11:05.800Z,99.30
2022-11-30T19:13:08.037Z,99.58
2022-11-30T19:15:10.546Z,99.74
2022-11-30T19:17:12.781Z,99.05
2022-11-30T19:19:17.614Z,99.25
2022-11-30T19:21:21.685Z,99.29
2022-11-30T19:23:23.983Z,99.41
2022-11-30T19:25:25.986Z,99.65
2022-11-30T19:27:28.046Z,99.17
2022-11-30T19:29:30.274Z,99.22
2022-11-30T19:31:32.359Z,99.38
2022-11-30T19:33:36.146Z,99.33
2022-11-30T19:35:38.821Z,98.96
2022-11-30T19:37:41.120Z,99.29
2022-11-30T19:39:45.264Z,99.27
2022-11-30T19:41:48.318Z,98.96
2022-11-30T19:44:03.107Z,99.02
2022-11-30T19:46:08.149Z,99.21
2022-11-30T19:48:14.234Z,99.13
2022-11-30T19:50:16.879Z,99.15
2022-11-30T19:52:20.473Z,98.91
2022-11-30T19:54:22.980Z,98.61
2022-11-30T19:56:26.609Z,97.92
2022-11-30T19:58:31.227Z,98.37
2022-11-30T20:00:33.483Z,97.63
2022-11-30T20:02:36.450Z,97.78
2022-11-30T20:04:39.371Z,97.86
2022-11-30T20:06:42.144Z,97.51
2022-11-30T20:08:47.501Z,97.42
2022-11-30T20:10:49.616Z,97.86
2022-11-30T20:12:51.654Z,97.46
2022-11-30T20:14:54.998Z,97.88
2022-11-30T20:16:57.663Z,97.11
2022-11-30T20:19:02.905Z,97.11
2022-11-30T20:21:13.517Z,97.19
2022-11-30T20:23:15.793Z,97.30
2022-11-30T20:25:17.821Z,96.82
2022-11-30T20:27:23.867Z,96.94
2022-11-30T20:29:25.966Z,97.29
2022-11-30T20:31:28.938Z,96.79
2022-11-30T20:33:31.105Z,97.51
2022-11-30T20:35:39.078Z,97.53
2022-11-30T20:37:44.277Z,97.11
2022-11-30T20:39:47.289Z,97.13
2022-11-30T20:41:49.704Z,97.02
2022-11-30T20:43:53.239Z,97.32
2022-11-30T20:45:55.421Z,97.07
2022-11-30T20:48:13.368Z,97.50
2022-11-30T20:50:15.427Z,97.78
2022-11-30T20:52:17.464Z,97.44
2022-11-30T20:54:22.681Z,97.57
2022-11-30T20:56:25.291Z,97.42
2022-11-30T20:58:27.727Z,97.89
2022-11-30T21:00:30.179Z,97.93
2022-11-30T21:02:32.200Z,98.15
2022-11-30T21:04:37.231Z,97.80
2022-11-30T21:06:40.633Z,97.81
2022-11-30T21:08:43.112Z,97.77
2022-11-30T21:10:45.981Z,97.83
2022-11-30T21:12:48.631Z,97.74
2022-11-30T21:14:50.657Z,97.23
2022-11-30T21:16:53.029Z,97.00
2022-11-30T21:18:55.294Z,97.27
2022-11-30T21:21:11.591Z,97.22
2022-11-30T21:23:13.915Z,97.30
2022-11-30T21:25:16.003Z,97.92
2022-11-30T21:27:18.188Z,97.58
2022-11-30T21:29:20.466Z,97.57
2022-11-30T21:31:24.148Z,97.67
2022-11-30T21:33:27.998Z,97.59
2022-11-30T21:35:30.268Z,97.67
2022-11-30T21:37:32.193Z,98.70
2022-11-30T21:39:35.791Z,98.00
2022-11-30T21:41:39.750Z,97.74
2022-11-30T21:43:42.419Z,98.02
2022-11-30T21:45:58.323Z,97.85
2022-11-30T21:48:00.522Z,97.79
2022-11-30T21:50:04.864Z,97.77
2022-11-30T21:52:07.642Z,97.42
2022-11-30T21:54:13.091Z,97.38
2022-11-30T21:56:21.422Z,97.19
2022-11-30T21:58:23.638Z,97.08
2022-11-30T22:00:26.308Z,96.91
2022-11-30T22:02:28.561Z,96.84
2022-11-30T22:04:30.684Z,96.79
2022-11-30T22:06:34.229Z,96.04
2022-11-30T22:08:37.064Z,96.26
2022-11-30T22:10:39.127Z,95.65
2022-11-30T22:12:41.286Z,95.85
2022-11-30T22:14:43.377Z,95.90
2022-11-30T22:16:45.794Z,96.30
2022-11-30T22:18:48.590Z,96.27
2022-11-30T22:20:50.618Z,95.69
2022-11-30T22:22:52.832Z,95.99
2022-11-30T22:24:55.815Z,95.46
2022-11-30T22:26:57.888Z,95.38
2022-11-30T22:29:03.720Z,95.76
2022-11-30T22:31:07.910Z,95.57
2022-11-30T22:33:10.057Z,95.85
2022-11-30T22:35:12.100Z,95.88
2022-11-30T22:37:14.182Z,95.90
2022-11-30T22:39:17.508Z,95.80
2022-11-30T22:41:19.679Z,95.71
2022-11-30T22:43:21.786Z,95.79
2022-11-30T22:45:24.067Z,95.76
2022-11-30T22:47:26.188Z,95.39
2022-11-30T22:49:28.145Z,95.87
2022-11-30T22:51:32.461Z,95.77
2022-11-30T22:53:36.269Z,95.41
2022-11-30T22:55:38.477Z,95.56
2022-11-30T22:57:41.007Z,95.17
2022-11-30T22:59:43.613Z,95.67
2022-11-30T23:01:48.073Z,95.50
2022-11-30T23:03:51.850Z,95.17
2022-11-30T23:05:54.875Z,95.53
2022-11-30T23:07:57.012Z,95.68
2022-11-30T23:09:58.991Z,95.38
2022-11-30T23:12:01.066Z,95.27
2022-11-30T23:14:06.243Z,94.53
2022-11-30T23:16:09.884Z,95.39
2022-11-30T23:18:11.977Z,94.71
2022-11-30T23:20:14.220Z,94.59
2022-11-30T23:22:16.461Z,94.68
2022-11-30T23:24:23.929Z,94.56
2022-11-30T23:26:28.711Z,94.50
2022-11-30T23:28:30.831Z,94.80
2022-11-30T23:30:33.601Z,95.37
2022-11-30T23:32:36.131Z,94.90
2022-11-30T23:34:38.361Z,94.74
2022-11-30T23:36:40.199Z,95.20
2022-11-30T23:38:42.584Z,94.65
2022-11-30T23:40:44.635Z,95.13
2022-11-30T23:42:46.504Z,94.66
2022-11-30T23:44:48.497Z,94.40
2022-11-30T23:46:50.852Z,95.04
2022-11-30T23:48:52.910Z,94.45
2022-11-30T23:50:55.238Z,94.95
2022-11-30T23:52:57.244Z,94.62
2022-11-30T23:54:59.226Z,94.25
2022-11-30T23:57:01.234Z,94.89
2022-11-30T23:59:06.148Z,94.32
